Time;durP1;ratioP1;P1;durP2;ratioP2;P2;SDS_P1;SDS_P2;PMS_P1;PMS_P2;Temp;Humidity;BMP_temperature;BMP_pressure;BME280_temperature;BME280_humidity;BME280_pressure;Samples;Min_cycle;Max_cycle;Signal;HPM_P1;HPM_P2
2021/06/19 00:01:11;;;;;;;5.40;3.72;;;21.30;99.90;;;;;;5059183;28;20017;-84
2021/06/19 00:03:37;;;;;;;4.72;3.47;;;21.30;99.90;;;;;;5052081;28;20475;-84
2021/06/19 00:06:04;;;;;;;6.15;3.72;;;21.30;99.90;;;;;;5055977;28;20074;-84
2021/06/19 00:08:30;;;;;;;4.97;3.28;;;21.30;99.90;;;;;;5057417;28;20024;-84
2021/06/19 00:10:56;;;;;;;5.03;3.80;;;21.30;99.90;;;;;;5065895;28;20135;-84
2021/06/19 00:13:22;;;;;;;5.10;3.80;;;21.30;99.90;;;;;;5064078;28;20536;-85
2021/06/19 00:15:50;;;;;;;6.18;3.83;;;21.30;99.90;;;;;;5076826;28;20024;-84
2021/06/19 00:18:16;;;;;;;7.03;4.22;;;21.30;99.90;;;;;;5076588;28;20094;-85
2021/06/19 00:20:42;;;;;;;5.63;3.78;;;21.30;99.90;;;;;;5076318;28;20461;-84
2021/06/19 00:23:08;;;;;;;5.45;3.97;;;21.30;99.90;;;;;;5076202;28;20020;-85
2021/06/19 00:25:34;;;;;;;7.22;4.55;;;21.30;99.90;;;;;;5055705;28;20036;-85
2021/06/19 00:27:59;;;;;;;7.10;4.28;;;21.30;99.90;;;;;;5052552;28;20525;-84
2021/06/19 00:30:28;;;;;;;5.07;3.75;;;21.20;99.90;;;;;;5058337;28;20059;-83
2021/06/19 00:32:55;;;;;;;4.22;3.47;;;21.30;99.90;;;;;;5076226;28;20516;-83
2021/06/19 00:35:21;;;;;;;6.07;3.97;;;21.30;99.90;;;;;;5075910;28;20051;-84
2021/06/19 00:37:47;;;;;;;5.78;3.60;;;21.30;99.90;;;;;;5058085;28;20017;-84
2021/06/19 00:40:14;;;;;;;6.00;3.58;;;21.30;99.90;;;;;;5076448;28;20079;-84
2021/06/19 00:42:49;;;;;;;5.20;3.42;;;21.30;99.90;;;;;;5041627;28;20024;-84
2021/06/19 00:45:14;;;;;;;4.00;3.17;;;21.30;99.90;;;;;;5058009;28;20036;-83
2021/06/19 00:47:40;;;;;;;4.43;3.08;;;21.30;99.90;;;;;;5057474;28;20020;-84
2021/06/19 00:50:08;;;;;;;3.75;2.95;;;21.30;99.90;;;;;;5057179;28;20021;-84
2021/06/19 00:52:33;;;;;;;3.60;2.90;;;21.30;99.90;;;;;;5057032;28;20085;-84
2021/06/19 00:55:03;;;;;;;4.50;2.90;;;21.30;99.90;;;;;;5040248;28;20441;-84
2021/06/19 00:57:29;;;;;;;2.90;2.38;;;21.30;99.90;;;;;;5057191;28;20024;-84
2021/06/19 00:59:57;;;;;;;2.75;2.17;;;21.30;99.90;;;;;;5057391;28;20025;-84
2021/06/19 01:02:22;;;;;;;2.25;1.70;;;21.30;99.90;;;;;;5056549;28;20031;-84
2021/06/19 01:04:48;;;;;;;4.47;2.03;;;21.30;99.90;;;;;;5040813;28;20029;-83
2021/06/19 01:07:14;;;;;;;2.88;1.60;;;21.30;99.90;;;;;;5057040;28;20047;-82
2021/06/19 01:09:39;;;;;;;2.28;1.60;;;21.30;99.90;;;;;;5074392;28;20021;-83
2021/06/19 01:12:05;;;;;;;4.07;1.75;;;21.30;99.90;;;;;;5055438;28;20063;-83
2021/06/19 01:14:32;;;;;;;2.42;1.65;;;21.30;99.90;;;;;;5055477;28;20380;-83
2021/06/19 01:16:58;;;;;;;2.40;1.50;;;21.30;99.90;;;;;;5073302;28;20488;-84
2021/06/19 01:19:23;;;;;;;2.25;1.40;;;21.30;99.90;;;;;;5055035;28;20055;-84
2021/06/19 01:21:54;;;;;;;3.00;1.42;;;21.30;99.90;;;;;;5055138;28;20443;-84
2021/06/19 01:24:24;;;;;;;1.73;1.40;;;21.30;99.90;;;;;;5055105;28;20021;-83
2021/06/19 01:26:51;;;;;;;2.38;1.30;;;21.20;99.90;;;;;;5056837;28;20032;-83
2021/06/19 01:29:17;;;;;;;3.60;1.60;;;21.20;99.90;;;;;;5063891;28;20086;-84
2021/06/19 01:31:43;;;;;;;1.98;1.30;;;21.20;99.90;;;;;;5083134;28;20413;-84
2021/06/19 01:34:09;;;;;;;3.22;1.30;;;21.20;99.90;;;;;;5075217;28;20039;-84
2021/06/19 01:36:35;;;;;;;1.33;1.10;;;21.30;99.90;;;;;;5074335;28;20109;-84
2021/06/19 01:39:00;;;;;;;2.60;1.45;;;21.20;99.90;;;;;;5074261;28;20376;-84
2021/06/19 01:41:29;;;;;;;2.28;1.67;;;21.20;99.90;;;;;;5056839;28;20025;-84
2021/06/19 01:44:03;;;;;;;2.53;1.45;;;21.10;99.90;;;;;;5056894;28;20056;-84
2021/06/19 01:46:29;;;;;;;2.33;1.30;;;21.20;99.90;;;;;;5074728;28;20087;-83
2021/06/19 01:48:55;;;;;;;2.20;1.40;;;21.10;99.90;;;;;;5056728;28;20126;-83
2021/06/19 01:51:22;;;;;;;1.85;1.60;;;21.10;99.90;;;;;;5075094;28;20021;-83
2021/06/19 01:53:48;;;;;;;3.40;1.50;;;21.10;99.90;;;;;;5078271;28;20012;-84
2021/06/19 01:56:15;;;;;;;1.38;1.27;;;21.10;99.90;;;;;;5091747;28;20041;-84
2021/06/19 01:58:41;;;;;;;4.88;2.45;;;21.00;99.90;;;;;;5074938;28;20020;-84
2021/06/19 02:01:10;;;;;;;3.25;1.95;;;21.00;99.90;;;;;;5056592;28;20374;-84
2021/06/19 02:03:36;;;;;;;2.63;2.15;;;21.00;99.90;;;;;;5074955;28;20025;-85
2021/06/19 02:06:02;;;;;;;1.90;1.65;;;21.00;99.90;;;;;;5056573;28;20059;-84
2021/06/19 02:08:28;;;;;;;3.92;1.70;;;21.00;99.90;;;;;;5055793;28;20033;-84
2021/06/19 02:10:57;;;;;;;1.95;1.45;;;21.00;99.90;;;;;;5074432;28;20102;-84
2021/06/19 02:13:23;;;;;;;2.25;2.05;;;21.00;99.90;;;;;;5073900;28;20025;-84
2021/06/19 02:15:49;;;;;;;3.47;2.10;;;20.90;99.90;;;;;;5056561;28;20024;-84
2021/06/19 02:18:15;;;;;;;4.53;2.03;;;20.90;99.90;;;;;;5056433;28;20043;-85
2021/06/19 02:20:41;;;;;;;3.22;2.30;;;20.90;99.90;;;;;;5074007;28;20408;-83
2021/06/19 02:23:07;;;;;;;3.13;1.88;;;20.90;99.90;;;;;;5056221;28;20024;-85
2021/06/19 02:25:33;;;;;;;3.00;1.60;;;20.90;99.90;;;;;;5055985;28;20361;-84
2021/06/19 02:28:01;;;;;;;3.10;1.70;;;20.90;99.90;;;;;;5074029;28;20024;-84
2021/06/19 02:30:33;;;;;;;2.55;2.10;;;20.90;99.90;;;;;;5055999;28;20369;-84
2021/06/19 02:33:00;;;;;;;2.78;2.10;;;20.90;99.90;;;;;;5073394;28;20086;-84
2021/06/19 02:35:28;;;;;;;3.53;2.28;;;20.80;99.90;;;;;;5074212;28;20069;-84
2021/06/19 02:37:55;;;;;;;2.33;1.75;;;20.80;99.90;;;;;;5056255;28;20065;-84
2021/06/19 02:40:20;;;;;;;2.47;2.00;;;20.80;99.90;;;;;;5056125;28;20029;-84
2021/06/19 02:42:46;;;;;;;2.95;2.20;;;20.80;99.90;;;;;;5056067;28;20025;-83
2021/06/19 02:45:12;;;;;;;2.63;2.17;;;20.80;99.90;;;;;;5055915;28;20066;-83
2021/06/19 02:47:46;;;;;;;4.13;2.47;;;20.80;99.90;;;;;;5073755;28;20129;-83
2021/06/19 02:50:14;;;;;;;3.45;2.50;;;20.80;99.90;;;;;;5055899;28;20469;-84
2021/06/19 02:52:41;;;;;;;2.92;2.63;;;20.90;99.90;;;;;;5055787;28;20024;-84
2021/06/19 02:55:15;;;;;;;4.63;2.72;;;20.90;99.90;;;;;;5055636;28;20029;-84
2021/06/19 02:57:42;;;;;;;4.80;2.60;;;20.90;99.90;;;;;;5055738;28;20043;-84
2021/06/19 03:00:15;;;;;;;3.47;2.30;;;21.00;99.90;;;;;;5074070;28;20025;-84
2021/06/19 03:02:42;;;;;;;4.13;2.35;;;21.00;99.90;;;;;;5055615;28;20052;-84
2021/06/19 03:05:09;;;;;;;2.75;2.38;;;21.10;99.90;;;;;;5055685;28;20020;-83
2021/06/19 03:07:35;;;;;;;3.85;2.55;;;21.10;99.90;;;;;;5055222;28;20068;-84
2021/06/19 03:10:01;;;;;;;4.22;2.40;;;21.10;99.90;;;;;;5072986;28;20481;-84
2021/06/19 03:12:27;;;;;;;3.60;2.40;;;21.10;99.90;;;;;;5055442;28;20124;-84
2021/06/19 03:14:53;;;;;;;4.10;2.90;;;21.20;99.90;;;;;;5073220;28;20060;-83
2021/06/19 03:17:20;;;;;;;4.32;2.90;;;21.20;99.90;;;;;;5073392;28;20115;-84
2021/06/19 03:19:46;;;;;;;3.83;2.75;;;21.20;99.90;;;;;;5055489;28;20168;-84
2021/06/19 03:22:12;;;;;;;4.13;3.47;;;21.20;99.90;;;;;;5072963;28;20166;-84
2021/06/19 03:24:39;;;;;;;3.88;2.70;;;21.20;99.90;;;;;;5055759;28;20029;-83
2021/06/19 03:27:09;;;;;;;3.65;2.95;;;21.20;99.90;;;;;;5056072;28;20531;-83
2021/06/19 03:29:36;;;;;;;3.45;3.10;;;21.20;99.90;;;;;;5055380;28;20414;-83
2021/06/19 03:32:02;;;;;;;3.70;2.88;;;21.20;99.90;;;;;;5055991;28;20032;-83
2021/06/19 03:34:30;;;;;;;4.13;2.95;;;21.20;99.90;;;;;;5068997;28;20020;-83
2021/06/19 03:36:59;;;;;;;4.72;3.40;;;21.20;99.90;;;;;;5082916;28;20080;-83
2021/06/19 03:39:29;;;;;;;3.65;3.00;;;21.20;99.90;;;;;;5057492;28;20419;-83
2021/06/19 03:41:55;;;;;;;4.43;3.45;;;21.20;99.90;;;;;;5062797;28;20025;-84
2021/06/19 03:44:22;;;;;;;4.40;3.70;;;21.30;99.90;;;;;;5076536;28;20032;-83
2021/06/19 03:46:48;;;;;;;5.68;3.83;;;21.20;99.90;;;;;;5076662;28;20039;-83
2021/06/19 03:49:14;;;;;;;6.93;4.78;;;21.20;99.90;;;;;;5059589;28;20024;-83
2021/06/19 03:51:39;;;;;;;5.03;4.45;;;21.20;99.90;;;;;;5077610;28;20028;-84
2021/06/19 03:54:05;;;;;;;5.72;4.28;;;21.20;99.90;;;;;;5077438;28;20107;-83
2021/06/19 03:56:32;;;;;;;4.38;3.72;;;21.20;99.90;;;;;;5077000;28;20060;-84
2021/06/19 03:58:57;;;;;;;5.15;4.65;;;21.20;99.90;;;;;;5058887;28;20024;-84
2021/06/19 04:01:23;;;;;;;5.38;4.30;;;21.20;99.90;;;;;;5059171;28;20511;-84
2021/06/19 04:03:49;;;;;;;5.35;4.53;;;21.30;99.90;;;;;;5076450;28;20028;-85
2021/06/19 04:06:15;;;;;;;8.45;5.25;;;21.30;99.90;;;;;;5058519;28;20384;-84
2021/06/19 04:08:47;;;;;;;5.20;4.70;;;21.30;99.90;;;;;;5076652;28;20023;-86
2021/06/19 04:11:14;;;;;;;5.47;4.85;;;21.30;99.90;;;;;;5058139;28;20049;-85
2021/06/19 04:13:41;;;;;;;5.88;4.97;;;21.20;99.90;;;;;;5076740;28;20099;-85
2021/06/19 04:16:09;;;;;;;4.57;4.03;;;21.20;99.90;;;;;;5076399;28;20036;-85
2021/06/19 04:18:35;;;;;;;5.45;4.93;;;21.20;99.90;;;;;;5058392;28;20024;-86
2021/06/19 04:21:01;;;;;;;6.30;5.15;;;21.20;99.90;;;;;;5076290;28;20052;-85
2021/06/19 04:23:27;;;;;;;6.00;5.13;;;21.20;99.90;;;;;;5058464;28;20479;-86
2021/06/19 04:25:52;;;;;;;7.55;5.70;;;21.20;99.90;;;;;;5058163;28;20028;-85
2021/06/19 04:28:18;;;;;;;5.05;3.85;;;21.20;99.90;;;;;;5058582;28;20020;-85
2021/06/19 04:30:44;;;;;;;4.97;3.83;;;21.20;99.90;;;;;;5058382;28;20033;-86
2021/06/19 04:33:09;;;;;;;4.45;3.47;;;21.20;99.90;;;;;;5075991;28;20024;-85
2021/06/19 04:35:35;;;;;;;4.43;3.45;;;21.30;99.90;;;;;;5075906;28;20024;-84
2021/06/19 04:38:01;;;;;;;4.30;3.35;;;21.30;99.90;;;;;;5076098;28;20017;-85
2021/06/19 04:43:01;;;;;;;3.92;2.90;;;21.40;99.90;;;;;;5076159;28;20119;-85
2021/06/19 04:45:28;;;;;;;3.33;2.70;;;21.40;99.90;;;;;;5075803;28;20035;-85
2021/06/19 04:47:54;;;;;;;4.35;3.00;;;21.50;99.90;;;;;;5057948;28;20556;-85
2021/06/19 04:50:19;;;;;;;2.78;2.38;;;21.50;99.90;;;;;;5075279;28;20107;-86
2021/06/19 04:52:46;;;;;;;3.85;2.47;;;21.50;99.90;;;;;;5075899;28;20055;-86
2021/06/19 04:55:15;;;;;;;4.55;2.55;;;21.50;99.90;;;;;;5040633;28;20124;-86
2021/06/19 04:57:42;;;;;;;4.18;2.65;;;21.50;99.90;;;;;;5057411;28;20090;-85
2021/06/19 05:00:11;;;;;;;3.08;2.60;;;21.50;99.90;;;;;;5075751;28;20476;-85
2021/06/19 05:02:38;;;;;;;5.18;3.72;;;21.50;99.90;;;;;;5041018;28;20025;-86
2021/06/19 05:05:04;;;;;;;4.80;2.92;;;21.50;99.90;;;;;;5057766;28;20023;-85
2021/06/19 05:07:32;;;;;;;4.75;3.70;;;21.50;99.90;;;;;;5056705;28;20400;-87
2021/06/19 05:09:58;;;;;;;4.05;3.65;;;21.50;99.90;;;;;;5057134;28;20056;-84
2021/06/19 05:12:26;;;;;;;5.47;2.90;;;21.50;99.90;;;;;;5040575;28;20428;-85
2021/06/19 05:14:54;;;;;;;4.40;3.40;;;21.50;99.90;;;;;;5040424;28;20033;-87
2021/06/19 05:17:20;;;;;;;4.10;3.33;;;21.60;99.90;;;;;;5057187;28;20105;-87
2021/06/19 05:19:45;;;;;;;3.67;3.28;;;21.50;99.90;;;;;;5056946;28;20087;-86
2021/06/19 05:22:12;;;;;;;4.38;3.10;;;21.60;99.90;;;;;;5057513;28;20021;-85
2021/06/19 05:24:38;;;;;;;5.18;3.60;;;21.60;99.90;;;;;;5040579;28;20025;-85
2021/06/19 05:27:04;;;;;;;5.32;4.63;;;21.70;99.90;;;;;;5056793;28;20055;-85
2021/06/19 05:29:30;;;;;;;7.78;5.22;;;21.60;99.90;;;;;;5056241;28;20028;-85
2021/06/19 05:31:55;;;;;;;5.72;4.47;;;21.60;99.90;;;;;;5058696;28;20021;-85
2021/06/19 05:34:21;;;;;;;5.75;4.60;;;21.60;99.90;;;;;;5080455;28;20013;-86
2021/06/19 05:36:48;;;;;;;4.45;3.58;;;21.50;99.90;;;;;;5081636;28;20004;-85
2021/06/19 05:39:14;;;;;;;4.68;3.40;;;21.50;99.90;;;;;;5075891;28;20461;-86
2021/06/19 05:41:39;;;;;;;5.15;3.60;;;21.50;99.90;;;;;;5058109;28;20056;-87
2021/06/19 05:44:08;;;;;;;5.50;4.45;;;21.60;99.90;;;;;;5041055;28;20057;-86
2021/06/19 05:46:35;;;;;;;5.85;4.38;;;21.60;99.90;;;;;;5075384;28;20032;-85
2021/06/19 05:49:00;;;;;;;6.40;5.15;;;21.50;99.90;;;;;;5057038;28;20025;-86
2021/06/19 05:51:26;;;;;;;6.22;4.57;;;21.50;99.90;;;;;;5074737;28;20074;-88
2021/06/19 05:53:54;;;;;;;5.38;4.53;;;21.50;99.90;;;;;;5057199;28;20381;-86
2021/06/19 05:56:20;;;;;;;5.15;4.65;;;21.50;99.90;;;;;;5040414;28;20025;-85
2021/06/19 05:58:51;;;;;;;4.38;3.67;;;21.60;99.90;;;;;;5056762;28;20091;-86
2021/06/19 06:01:17;;;;;;;6.03;4.80;;;21.60;99.90;;;;;;5074338;28;20024;-85
2021/06/19 06:03:43;;;;;;;5.88;4.03;;;21.60;99.90;;;;;;5057045;28;20050;-84
2021/06/19 06:06:09;;;;;;;5.88;4.40;;;21.60;99.90;;;;;;5074344;28;20082;-84
2021/06/19 06:08:34;;;;;;;5.38;4.60;;;21.60;99.90;;;;;;5055777;28;20063;-85
2021/06/19 06:11:04;;;;;;;5.38;4.53;;;21.60;99.90;;;;;;5074328;28;20063;-85
2021/06/19 06:13:29;;;;;;;5.20;4.70;;;21.60;99.90;;;;;;5056454;28;20020;-86
2021/06/19 06:15:55;;;;;;;7.68;6.05;;;21.70;99.90;;;;;;5056746;28;20086;-85
2021/06/19 06:18:24;;;;;;;7.32;6.53;;;21.80;99.90;;;;;;5056427;28;20025;-85
2021/06/19 06:20:52;;;;;;;10.40;9.25;;;21.90;99.90;;;;;;5055832;28;20027;-85
2021/06/19 06:23:25;;;;;;;11.45;9.30;;;21.90;99.90;;;;;;5074030;28;20024;-86
2021/06/19 06:25:51;;;;;;;15.20;12.00;;;21.90;99.90;;;;;;5056556;28;20090;-85
2021/06/19 06:28:20;;;;;;;16.63;14.50;;;21.90;99.90;;;;;;5074366;28;20453;-86
2021/06/19 06:30:54;;;;;;;16.52;14.43;;;21.80;99.90;;;;;;5074092;28;20027;-85
2021/06/19 06:33:22;;;;;;;18.38;15.00;;;21.80;99.90;;;;;;5074345;28;20020;-86
2021/06/19 06:35:51;;;;;;;17.88;15.57;;;21.70;99.90;;;;;;5056222;28;20112;-85
2021/06/19 06:38:17;;;;;;;19.60;16.48;;;21.70;99.90;;;;;;5073942;28;20024;-85
2021/06/19 06:40:43;;;;;;;19.52;16.60;;;21.70;99.90;;;;;;5073625;28;20122;-85
2021/06/19 06:43:16;;;;;;;19.95;16.80;;;21.70;99.90;;;;;;5055604;28;20028;-86
2021/06/19 06:45:44;;;;;;;;;;;21.60;99.90;;;;;;5056530;28;20028;-83
2021/06/19 06:48:10;;;;;;;21.05;15.07;;;21.50;99.90;;;;;;5055490;28;20357;-85
2021/06/19 06:50:36;;;;;;;18.02;13.45;;;21.40;99.90;;;;;;5073957;28;20036;-84
2021/06/19 06:53:02;;;;;;;18.95;14.75;;;21.60;99.90;;;;;;5055799;28;20025;-85
2021/06/19 06:55:28;;;;;;;14.88;12.48;;;21.70;99.90;;;;;;5055283;28;20071;-85
2021/06/19 06:57:54;;;;;;;18.42;13.55;;;21.80;99.90;;;;;;5074123;28;20033;-86
2021/06/19 07:00:23;;;;;;;16.88;12.25;;;21.90;99.90;;;;;;5038774;28;20482;-84
2021/06/19 07:02:52;;;;;;;14.30;11.55;;;21.90;99.90;;;;;;5074029;28;20025;-85
2021/06/19 07:05:18;;;;;;;15.25;10.43;;;21.90;99.90;;;;;;5073839;28;20024;-85
2021/06/19 07:07:44;;;;;;;13.00;9.45;;;21.90;99.90;;;;;;5039106;28;20493;-85
2021/06/19 07:10:12;;;;;;;12.68;9.15;;;22.10;99.90;;;;;;5073695;28;20380;-84
2021/06/19 07:12:43;;;;;;;12.88;9.63;;;22.20;99.90;;;;;;5073569;28;20449;-84
2021/06/19 07:15:17;;;;;;;11.70;9.02;;;22.30;99.90;;;;;;5039537;28;20373;-82
2021/06/19 07:17:44;;;;;;;10.88;8.35;;;22.40;99.90;;;;;;5055404;28;20024;-83
2021/06/19 07:20:12;;;;;;;12.32;9.63;;;22.40;99.90;;;;;;5077120;28;20358;-83
2021/06/19 07:22:38;;;;;;;9.95;8.32;;;22.50;99.90;;;;;;5077745;28;20070;-84
2021/06/19 07:25:09;;;;;;;9.90;8.15;;;22.40;99.90;;;;;;5071592;28;20025;-84
2021/06/19 07:27:36;;;;;;;9.00;6.65;;;22.40;99.90;;;;;;5100816;28;20021;-84
2021/06/19 07:30:03;;;;;;;10.32;8.23;;;22.50;99.90;;;;;;5076008;28;20021;-84
2021/06/19 07:32:28;;;;;;;10.68;8.30;;;22.50;99.90;;;;;;5060154;28;20361;-85
2021/06/19 07:34:57;;;;;;;10.10;7.60;;;22.60;99.90;;;;;;5077760;28;20035;-85
2021/06/19 07:37:23;;;;;;;10.35;8.25;;;22.60;99.90;;;;;;5077920;28;20084;-83
2021/06/19 07:39:49;;;;;;;12.30;9.93;;;22.60;99.90;;;;;;5053129;28;20028;-84
2021/06/19 07:42:14;;;;;;;9.75;8.38;;;22.60;99.90;;;;;;5069472;28;20430;-84
2021/06/19 07:44:40;;;;;;;13.23;9.80;;;22.60;99.90;;;;;;5061563;28;20100;-84
2021/06/19 07:47:06;;;;;;;12.82;8.50;;;22.60;99.90;;;;;;5057027;28;20045;-83
2021/06/19 07:49:32;;;;;;;11.13;8.95;;;22.60;99.90;;;;;;5022531;28;20025;-84
2021/06/19 07:51:58;;;;;;;13.20;9.35;;;22.50;99.90;;;;;;5038737;28;20033;-83
2021/06/19 07:54:23;;;;;;;10.38;8.77;;;22.50;99.90;;;;;;5039155;28;20025;-84
2021/06/19 07:56:49;;;;;;;12.93;10.93;;;22.50;99.90;;;;;;5039125;28;20032;-83
2021/06/19 07:59:15;;;;;;;13.52;10.55;;;22.60;99.90;;;;;;5056767;28;20542;-84
2021/06/19 08:01:41;;;;;;;12.02;8.50;;;22.50;99.90;;;;;;5038336;28;20040;-83
2021/06/19 08:04:06;;;;;;;12.13;10.40;;;22.50;99.90;;;;;;5039510;28;20036;-83
2021/06/19 08:06:33;;;;;;;13.52;10.88;;;22.70;99.90;;;;;;5038207;28;20040;-83
2021/06/19 08:08:59;;;;;;;13.85;11.45;;;22.90;99.90;;;;;;5056292;28;20037;-83
2021/06/19 08:11:29;;;;;;;15.70;12.18;;;23.00;99.90;;;;;;5048246;28;20489;-82
2021/06/19 08:14:04;;;;;;;14.80;11.77;;;23.00;99.90;;;;;;5055607;28;20527;-83
2021/06/19 08:16:30;;;;;;;15.73;12.27;;;23.00;99.90;;;;;;5054705;28;20073;-83
2021/06/19 08:18:56;;;;;;;14.82;11.23;;;23.00;99.90;;;;;;5055286;28;20461;-83
2021/06/19 08:21:22;;;;;;;13.75;10.48;;;22.90;99.90;;;;;;5054982;28;20029;-83
2021/06/19 08:23:53;;;;;;;12.35;9.45;;;23.10;99.90;;;;;;5055027;28;20079;-83
2021/06/19 08:26:20;;;;;;;16.02;12.07;;;23.30;99.90;;;;;;5056025;28;20433;-83
2021/06/19 08:28:49;;;;;;;16.48;12.32;;;23.50;99.80;;;;;;5056555;28;20459;-83
2021/06/19 08:31:14;;;;;;;19.33;15.68;;;23.50;99.70;;;;;;5053913;28;20495;-83
2021/06/19 08:33:45;;;;;;;17.30;15.32;;;23.40;99.80;;;;;;5054410;28;20040;-82
2021/06/19 08:36:14;;;;;;;18.42;14.45;;;23.40;99.90;;;;;;5056495;28;20458;-83
2021/06/19 08:38:43;;;;;;;16.10;13.75;;;23.40;99.80;;;;;;5055448;28;20033;-82
2021/06/19 08:41:11;;;;;;;15.13;12.55;;;23.30;99.90;;;;;;5054373;28;20025;-83
2021/06/19 08:43:46;;;;;;;13.90;11.52;;;23.30;99.90;;;;;;5054408;28;20100;-82
2021/06/19 08:46:23;;;;;;;12.57;10.73;;;23.40;99.90;;;;;;5054661;28;20029;-82
2021/06/19 08:48:52;;;;;;;11.70;10.23;;;23.40;99.60;;;;;;5056127;28;20024;-82
2021/06/19 08:51:20;;;;;;;13.38;11.50;;;23.40;99.50;;;;;;5053217;28;20028;-83
2021/06/19 08:53:59;;;;;;;10.65;9.55;;;23.40;99.30;;;;;;5054348;28;20017;-83
2021/06/19 08:56:50;;;;;;;12.82;10.18;;;23.50;99.30;;;;;;5053198;28;20119;-83
2021/06/19 08:59:17;;;;;;;10.15;8.50;;;23.60;98.90;;;;;;5046287;28;20122;-84
2021/06/19 09:01:46;;;;;;;8.57;6.97;;;23.70;98.80;;;;;;5053782;28;20036;-82
2021/06/19 09:04:12;;;;;;;8.98;7.70;;;23.90;98.80;;;;;;5055149;28;20033;-83
2021/06/19 09:06:40;;;;;;;11.50;9.43;;;24.00;98.50;;;;;;5054043;28;20025;-82
2021/06/19 09:09:14;;;;;;;8.88;7.75;;;24.00;98.20;;;;;;5037812;28;20173;-83
2021/06/19 09:11:44;;;;;;;9.00;8.10;;;24.00;98.40;;;;;;5055804;28;20045;-83
2021/06/19 09:14:16;;;;;;;10.15;8.13;;;24.00;98.40;;;;;;5054047;28;20021;-83
2021/06/19 09:16:59;;;;;;;10.27;8.85;;;24.00;98.40;;;;;;5055762;28;20029;-83
2021/06/19 09:19:33;;;;;;;8.60;7.30;;;24.10;98.30;;;;;;5069507;28;20052;-82
2021/06/19 09:22:20;;;;;;;11.07;8.57;;;24.20;98.40;;;;;;5079299;28;20013;-83
2021/06/19 09:24:46;;;;;;;11.05;8.50;;;24.20;98.00;;;;;;5056157;28;20021;-83
2021/06/19 09:27:42;;;;;;;10.60;7.78;;;24.10;98.20;;;;;;5054278;28;20033;-82
2021/06/19 09:30:08;;;;;;;11.15;8.27;;;24.20;98.10;;;;;;5041965;28;20025;-83
2021/06/19 09:32:39;;;;;;;9.25;8.20;;;24.40;97.90;;;;;;5053838;28;20132;-82
2021/06/19 09:35:42;;;;;;;10.18;8.05;;;24.40;97.70;;;;;;5053987;28;20079;-82
2021/06/19 09:38:14;;;;;;;13.43;11.27;;;24.50;97.80;;;;;;5053494;28;20391;-83
2021/06/19 09:40:41;;;;;;;;;;;24.60;97.30;;;;;;5055759;28;20075;-82
2021/06/19 09:43:20;;;;;;;13.07;11.30;;;24.40;97.10;;;;;;5055037;28;19908;-83
2021/06/19 09:46:09;;;;;;;11.48;9.15;;;24.10;97.30;;;;;;5063105;28;20052;-82
2021/06/19 09:48:36;;;;;;;12.82;11.32;;;24.00;97.70;;;;;;5053944;28;20090;-83
2021/06/19 09:51:19;;;;;;;12.68;11.38;;;24.00;97.60;;;;;;5053743;28;20032;-83
2021/06/19 09:53:49;;;;;;;13.48;11.00;;;24.00;97.60;;;;;;5053947;28;20036;-83
2021/06/19 09:56:19;;;;;;;10.15;8.43;;;24.00;97.70;;;;;;5054483;28;20555;-83
2021/06/19 09:58:51;;;;;;;10.43;8.98;;;24.50;97.60;;;;;;5053340;28;20481;-82
2021/06/19 10:01:40;;;;;;;7.90;6.70;;;25.40;97.00;;;;;;5049071;28;20036;-83
2021/06/19 10:04:06;;;;;;;6.60;4.72;;;26.50;96.30;;;;;;5054900;28;20492;-83
2021/06/19 10:06:36;;;;;;;7.88;6.00;;;27.70;95.80;;;;;;5052983;28;20420;-83
2021/06/19 10:09:03;;;;;;;10.05;7.13;;;28.60;94.90;;;;;;5054376;28;20013;-84
2021/06/19 10:11:29;;;;;;;12.65;8.00;;;29.40;93.60;;;;;;5052279;28;20092;-83
2021/06/19 10:13:59;;;;;;;7.45;5.30;;;29.60;92.00;;;;;;5052716;28;20112;-84
2021/06/19 10:16:27;;;;;;;6.70;4.88;;;29.50;92.20;;;;;;5054477;28;20036;-83
2021/06/19 10:18:54;;;;;;;7.30;5.80;;;29.60;92.20;;;;;;5052820;28;20464;-81
2021/06/19 10:21:21;;;;;;;7.40;5.55;;;30.00;91.50;;;;;;5054428;28;20021;-82
2021/06/19 10:23:49;;;;;;;7.97;5.18;;;30.10;91.00;;;;;;5053273;28;20078;-82
2021/06/19 10:26:21;;;;;;;6.40;5.30;;;30.30;90.70;;;;;;5052193;28;20056;-82
2021/06/19 10:28:50;;;;;;;6.85;5.35;;;30.20;90.10;;;;;;5052904;28;20524;-83
2021/06/19 10:31:19;;;;;;;6.85;5.15;;;30.00;89.90;;;;;;5053768;28;20025;-82
2021/06/19 10:33:49;;;;;;;6.47;4.97;;;30.20;89.80;;;;;;5054623;28;20131;-83
2021/06/19 10:36:16;;;;;;;8.00;5.20;;;30.40;89.40;;;;;;5052498;28;20374;-83
2021/06/19 10:38:59;;;;;;;7.68;6.88;;;30.60;88.80;;;;;;5053704;28;20056;-82
2021/06/19 10:41:50;;;;;;;8.27;7.20;;;30.40;85.90;;;;;;5052868;28;20087;-82
2021/06/19 10:44:48;;;;;;;11.85;6.10;;;29.90;86.00;;;;;;5053506;28;20028;-83
2021/06/19 10:47:18;;;;;;;8.52;5.85;;;30.30;86.80;;;;;;5052376;28;20021;-83
2021/06/19 10:49:50;;;;;;;9.77;7.55;;;30.30;85.50;;;;;;5052357;28;20028;-81
2021/06/19 10:52:43;;;;;;;7.90;6.93;;;29.30;85.80;;;;;;5052331;28;20385;-81
2021/06/19 10:55:09;;;;;;;7.63;6.72;;;28.50;87.60;;;;;;5053364;28;20454;-82
2021/06/19 10:57:52;;;;;;;9.30;8.30;;;27.80;89.30;;;;;;5052425;28;20043;-81
2021/06/19 11:01:13;;;;;;;8.05;6.75;;;27.40;89.10;;;;;;5053586;28;20024;-81
2021/06/19 11:03:43;;;;;;;7.63;6.53;;;26.90;90.40;;;;;;4992235;28;20419;-81
2021/06/19 11:06:24;;;;;;;9.95;8.27;;;26.50;91.00;;;;;;5042481;28;20447;-81
2021/06/19 11:09:07;;;;;;;8.85;7.50;;;26.10;91.30;;;;;;5052305;28;20369;-82
2021/06/19 11:12:08;;;;;;;7.65;6.95;;;25.90;91.80;;;;;;5060740;28;20053;-81
2021/06/19 11:14:44;;;;;;;8.77;7.50;;;25.70;92.10;;;;;;5072081;28;20048;-82
2021/06/19 11:17:43;;;;;;;11.18;10.07;;;25.90;92.30;;;;;;5054534;28;20509;-82
2021/06/19 11:20:15;;;;;;;10.13;9.07;;;25.90;92.20;;;;;;5052621;28;20362;-82
2021/06/19 11:22:57;;;;;;;10.35;8.88;;;25.90;92.30;;;;;;5052203;28;20074;-82
2021/06/19 11:25:34;;;;;;;13.65;11.20;;;25.80;92.40;;;;;;5048287;28;20021;-82
2021/06/19 11:28:50;;;;;;;11.82;10.63;;;25.70;92.50;;;;;;5049564;28;20049;-82
2021/06/19 11:31:19;;;;;;;13.57;12.13;;;25.80;92.80;;;;;;4989853;28;20059;-81
2021/06/19 11:33:47;;;;;;;12.80;11.20;;;25.80;92.60;;;;;;5051830;28;20037;-83
2021/06/19 11:36:19;;;;;;;11.35;10.18;;;25.70;92.70;;;;;;5052019;28;20021;-83
2021/06/19 11:38:51;;;;;;;15.05;13.55;;;25.60;92.80;;;;;;5051670;28;20112;-83
2021/06/19 11:41:20;;;;;;;13.23;11.93;;;25.50;92.90;;;;;;5053427;28;20041;-82
2021/06/19 11:43:47;;;;;;;15.20;13.80;;;25.40;93.20;;;;;;5052320;28;20128;-81
2021/06/19 11:46:25;;;;;;;12.65;10.98;;;25.20;93.20;;;;;;5052057;28;20033;-82
2021/06/19 11:48:54;;;;;;;11.77;10.57;;;25.20;93.60;;;;;;5062353;28;20075;-82
2021/06/19 11:51:23;;;;;;;10.95;9.85;;;25.20;93.60;;;;;;5062179;28;20049;-81
2021/06/19 11:53:50;;;;;;;13.65;12.23;;;25.40;93.70;;;;;;5053432;28;20028;-82
2021/06/19 11:56:27;;;;;;;15.40;13.90;;;25.60;93.50;;;;;;5051832;28;20068;-81
2021/06/19 11:59:03;;;;;;;13.00;11.70;;;25.70;93.30;;;;;;5053091;28;20040;-81
2021/06/19 12:01:33;;;;;;;11.57;10.45;;;25.80;93.30;;;;;;5052023;28;20021;-80
2021/06/19 12:04:04;;;;;;;10.40;9.40;;;26.00;93.30;;;;;;5051575;28;20021;-81
2021/06/19 12:07:08;;;;;;;11.63;9.32;;;26.20;93.20;;;;;;5054128;28;20021;-82
2021/06/19 12:09:45;;;;;;;10.38;8.82;;;26.40;93.10;;;;;;5044819;28;20120;-81
2021/06/19 12:12:26;;;;;;;12.77;11.48;;;26.70;92.90;;;;;;5043011;28;20117;-82
2021/06/19 12:15:00;;;;;;;13.13;11.88;;;26.80;92.60;;;;;;5038305;28;20033;-82
2021/06/19 12:17:43;;;;;;;10.10;9.02;;;26.60;92.50;;;;;;5038604;28;20083;-82
2021/06/19 12:20:25;;;;;;;10.00;8.95;;;26.40;92.60;;;;;;5056527;28;20024;-82
2021/06/19 12:22:58;;;;;;;10.80;9.80;;;26.50;92.80;;;;;;5038940;28;20025;-83
2021/06/19 12:25:34;;;;;;;12.23;11.02;;;26.50;92.70;;;;;;5038503;28;20021;-83
2021/06/19 12:28:03;;;;;;;12.70;11.43;;;26.50;92.50;;;;;;5038745;28;20025;-83
2021/06/19 12:30:32;;;;;;;10.68;9.57;;;26.20;92.50;;;;;;5056608;28;20495;-82
2021/06/19 12:33:01;;;;;;;10.80;9.70;;;25.90;92.90;;;;;;5037719;28;20103;-82
2021/06/19 12:35:32;;;;;;;10.20;9.23;;;25.90;93.00;;;;;;5038027;28;20040;-83
2021/06/19 12:38:05;;;;;;;11.02;9.93;;;25.90;93.30;;;;;;5037877;28;20078;-82
2021/06/19 12:40:35;;;;;;;12.75;11.55;;;25.90;93.00;;;;;;5055721;28;20052;-82
2021/06/19 12:43:09;;;;;;;9.85;8.85;;;25.90;92.80;;;;;;5038369;28;20017;-82
2021/06/19 12:45:43;;;;;;;8.27;7.40;;;25.80;93.10;;;;;;5056352;28;20021;-83
2021/06/19 12:48:29;;;;;;;9.38;8.43;;;26.10;93.10;;;;;;5038484;28;20036;-83
2021/06/19 12:50:58;;;;;;;8.63;7.78;;;26.50;92.80;;;;;;5054628;28;20032;-82
2021/06/19 12:53:35;;;;;;;11.80;10.57;;;27.40;92.70;;;;;;5036857;28;20343;-83
2021/06/19 12:56:04;;;;;;;8.40;7.60;;;28.30;91.50;;;;;;5013713;28;20544;-82